Benicassim, Spain
Current Conditions -  °F | °C
As of 3:00 AM on Monday 22 Dec 2014 (Local Time) from LEBT Reporting Station
Clear Clear  
Wind Chill: 39°   Ceiling: Unl
Heat Index: 39°   Visibility: 6mi
Dew Point: 39°   Wind: 1mph
Humidity: 100%   Direction: 260°W
Pressure: 30.48"   Gusts: NA
Location:  40.05°N, 0.07°E
Report Text: LEBT 220200Z AUTO 26001KT CAVOK 04/04 Q1032
Loading
Personal Weather Stations






























Interactive Weather Map New forecast layout! Learn more

10-Day Weather Forecast

Advertisements
Track Severe Weather on mobile